Time;durP1;ratioP1;P1;durP2;ratioP2;P2;SDS_P1;SDS_P2;PMS_P1;PMS_P2;Temp;Humidity;BMP_temperature;BMP_pressure;BME280_temperature;BME280_humidity;BME280_pressure;Samples;Min_cycle;Max_cycle;Signal;HPM_P1;HPM_P2
2021/08/15 00:00:13;;;;;;;9.38;3.88;;;;;;;19.99;52.24;101649.19;4947220;28;115227;-68
2021/08/15 00:02:41;;;;;;;6.43;3.83;;;;;;;20.00;52.20;101645.56;4948149;28;114533;-68
2021/08/15 00:05:10;;;;;;;8.80;4.28;;;;;;;19.99;52.21;101642.97;4950181;28;124357;-67
2021/08/15 00:07:38;;;;;;;8.38;4.57;;;;;;;19.98;52.28;101636.72;4949536;28;124587;-67
2021/08/15 00:10:07;;;;;;;8.93;4.22;;;;;;;19.97;52.46;101635.00;4949406;28;114226;-67
2021/08/15 00:12:34;;;;;;;9.95;4.13;;;;;;;19.97;52.22;101624.25;4950304;28;114471;-67
2021/08/15 00:15:01;;;;;;;10.38;4.78;;;;;;;19.96;52.45;101633.28;4951655;28;124536;-67
2021/08/15 00:17:28;;;;;;;10.85;4.57;;;;;;;19.95;52.68;101631.56;4952312;28;124121;-67
2021/08/15 00:19:56;;;;;;;12.93;4.80;;;;;;;19.94;52.75;101624.47;4949941;28;114402;-67
2021/08/15 00:22:23;;;;;;;9.55;5.10;;;;;;;19.93;52.68;101628.13;4949942;28;114169;-67
2021/08/15 00:24:50;;;;;;;10.93;4.80;;;;;;;19.91;52.95;101619.31;4947752;28;124068;-67
2021/08/15 00:27:17;;;;;;;10.85;5.10;;;;;;;19.88;52.99;101614.16;4950848;28;123750;-67
2021/08/15 00:29:44;;;;;;;13.02;5.05;;;;;;;19.87;52.97;101628.56;4948428;28;113658;-67
2021/08/15 00:32:11;;;;;;;11.77;5.55;;;;;;;19.86;53.21;101626.84;4930752;28;113855;-67
2021/08/15 00:34:38;;;;;;;11.85;5.32;;;;;;;19.86;53.38;101621.47;4946063;28;123931;-66
2021/08/15 00:37:06;;;;;;;11.98;6.05;;;;;;;19.86;53.34;101616.09;4947716;28;124734;-67
2021/08/15 00:39:33;;;;;;;10.25;5.65;;;;;;;19.86;53.53;101626.84;4949497;28;113097;-67
2021/08/15 00:42:00;;;;;;;11.40;5.85;;;;;;;19.87;53.64;101627.72;4948980;28;113863;-66
2021/08/15 00:44:27;;;;;;;11.68;5.68;;;;;;;19.87;53.77;101623.19;4948851;28;123861;-67
2021/08/15 00:46:55;;;;;;;11.25;5.43;;;;;;;19.89;53.97;101615.88;4951043;28;124003;-67
2021/08/15 00:49:22;;;;;;;12.52;6.22;;;;;;;19.90;53.84;101617.59;4947862;28;114709;-67
2021/08/15 00:51:49;;;;;;;10.02;5.35;;;;;;;19.93;53.78;101622.75;4950486;28;114734;-67
2021/08/15 00:54:17;;;;;;;11.10;6.03;;;;;;;19.95;53.94;101615.44;4949642;28;124145;-66
2021/08/15 00:56:54;;;;;;;12.07;6.00;;;;;;;19.97;53.97;101624.25;4952454;28;124810;-66
2021/08/15 00:59:21;;;;;;;11.82;6.07;;;;;;;19.99;53.75;101611.56;4950971;28;114213;-66
2021/08/15 01:01:50;;;;;;;10.57;6.47;;;;;;;20.01;54.07;101614.13;4951204;28;113123;-67
2021/08/15 01:04:19;;;;;;;11.00;6.28;;;;;;;20.02;53.96;101611.34;4947618;28;123973;-67
2021/08/15 01:06:47;;;;;;;13.07;6.10;;;;;;;20.05;53.71;101615.63;4950567;28;124432;-67
2021/08/15 01:09:15;;;;;;;10.60;6.32;;;;;;;20.07;53.72;101607.44;4950699;28;114011;-67
2021/08/15 01:11:42;;;;;;;11.32;6.18;;;;;;;20.08;53.75;101609.16;4951641;28;114742;-67
2021/08/15 01:14:09;;;;;;;14.50;6.45;;;;;;;20.10;53.72;101604.53;4949018;28;124584;-67
2021/08/15 01:16:44;;;;;;;12.27;6.25;;;;;;;20.10;53.94;101599.13;4950399;28;124015;-67
2021/08/15 01:19:12;;;;;;;10.05;6.18;;;;;;;20.10;53.75;101591.06;4950586;28;114136;-67
2021/08/15 01:21:47;;;;;;;13.20;6.15;;;;;;;20.10;53.94;101593.75;4946297;28;114417;-67
2021/08/15 01:24:14;;;;;;;13.50;6.37;;;;;;;20.08;53.79;101587.63;4947883;28;124999;-67
2021/08/15 01:26:43;;;;;;;12.85;6.03;;;;;;;20.06;53.71;101592.28;4949855;28;123667;-67
2021/08/15 01:29:11;;;;;;;11.75;6.50;;;;;;;20.03;53.87;101586.16;4948945;28;114666;-67
2021/08/15 01:31:38;;;;;;;12.50;6.75;;;;;;;20.03;53.99;101583.47;4950781;28;113019;-66
2021/08/15 01:34:06;;;;;;;11.63;6.45;;;;;;;20.02;53.93;101583.56;4949302;28;123934;-66
2021/08/15 01:36:33;;;;;;;12.73;6.57;;;;;;;19.98;54.02;101582.94;4950997;28;124636;-66
2021/08/15 01:39:00;;;;;;;12.60;6.63;;;;;;;19.96;54.14;101590.25;4945877;28;115319;-67
2021/08/15 01:41:27;;;;;;;13.65;6.80;;;;;;;19.93;54.07;101574.38;4949712;28;113849;-67
2021/08/15 01:43:57;;;;;;;11.73;6.75;;;;;;;19.92;54.27;101578.00;4949543;28;123846;-67
2021/08/15 01:46:29;;;;;;;18.52;7.40;;;;;;;19.92;54.14;101578.00;4953005;28;123091;-67
2021/08/15 01:48:58;;;;;;;13.07;6.35;;;;;;;19.92;54.60;101569.94;4953746;28;114323;-67
2021/08/15 01:51:25;;;;;;;11.93;6.72;;;;;;;19.90;54.34;101569.19;4953309;28;113996;-67
2021/08/15 01:53:55;;;;;;;12.98;6.90;;;;;;;19.90;54.41;101563.81;4950838;28;124702;-67
2021/08/15 01:56:23;;;;;;;12.20;6.68;;;;;;;19.90;54.35;101565.66;4951234;28;123991;-67
2021/08/15 01:58:50;;;;;;;13.70;7.07;;;;;;;19.88;54.47;101560.38;4952205;28;114468;-67
2021/08/15 02:01:19;;;;;;;12.43;6.97;;;;;;;19.88;54.37;101560.38;4953157;28;112648;-67
2021/08/15 02:03:48;;;;;;;13.20;7.43;;;;;;;19.88;54.36;101555.00;4950575;28;123859;-68
2021/08/15 02:06:17;;;;;;;15.05;7.45;;;;;;;19.86;54.50;101546.19;4952867;28;124698;-67
2021/08/15 02:08:46;;;;;;;14.85;7.68;;;;;;;19.86;54.52;101543.50;4952927;28;114624;-67
2021/08/15 02:11:13;;;;;;;14.48;7.70;;;;;;;19.84;54.47;101542.78;4953701;28;113948;-67
2021/08/15 02:13:40;;;;;;;14.38;7.93;;;;;;;19.83;54.46;101541.03;4948953;28;124060;-67
2021/08/15 02:16:07;;;;;;;14.02;7.80;;;;;;;19.81;54.66;101537.59;4954308;28;123857;-67
2021/08/15 02:18:35;;;;;;;12.50;7.05;;;;;;;19.80;54.66;101535.91;4955422;28;114438;-67
2021/08/15 02:21:02;;;;;;;12.40;7.65;;;;;;;19.78;54.28;101537.84;4952046;28;114359;-68
2021/08/15 02:23:29;;;;;;;12.25;7.75;;;;;;;19.78;54.57;101527.09;4951287;28;124840;-67
2021/08/15 02:25:57;;;;;;;15.45;8.30;;;;;;;19.76;54.54;101531.69;4953256;28;123998;-67
2021/08/15 02:28:24;;;;;;;16.80;8.68;;;;;;;19.74;54.54;101526.47;4950701;28;114836;-67
2021/08/15 02:30:51;;;;;;;18.90;9.07;;;;;;;19.72;54.55;101528.41;4953537;28;114125;-67
2021/08/15 02:33:19;;;;;;;18.63;9.20;;;;;;;19.70;54.68;101524.06;4953727;28;124805;-67
2021/08/15 02:35:47;;;;;;;16.05;9.60;;;;;;;19.68;54.65;101515.25;4952467;28;124459;-68
2021/08/15 02:38:14;;;;;;;17.35;9.32;;;;;;;19.65;54.64;101517.19;4952451;28;115015;-68
2021/08/15 02:40:41;;;;;;;17.00;9.80;;;;;;;19.62;54.75;101514.72;4953535;28;114410;-68
2021/08/15 02:43:08;;;;;;;19.67;10.68;;;;;;;19.61;54.93;101515.72;4953732;28;124690;-68
2021/08/15 02:45:35;;;;;;;16.73;9.23;;;;;;;19.59;54.76;101514.97;4952273;28;123769;-66
2021/08/15 02:48:03;;;;;;;17.60;9.90;;;;;;;19.57;54.79;101519.59;4951647;28;113941;-66
2021/08/15 02:50:30;;;;;;;16.27;10.95;;;;;;;19.54;55.05;101509.06;4953191;28;113427;-66
2021/08/15 02:52:57;;;;;;;19.15;10.23;;;;;;;19.51;54.78;101503.88;4950700;28;123956;-66
2021/08/15 02:55:24;;;;;;;18.58;10.50;;;;;;;19.50;54.91;101514.78;4949945;28;123788;-66
2021/08/15 02:57:51;;;;;;;23.85;10.77;;;;;;;19.48;55.04;101509.50;4953014;28;113140;-66
2021/08/15 03:00:19;;;;;;;20.45;10.80;;;;;;;19.45;55.05;101493.59;4950595;28;114097;-66
2021/08/15 03:02:46;;;;;;;21.65;11.15;;;;;;;19.41;54.94;101502.84;4951157;28;124572;-66
2021/08/15 03:05:13;;;;;;;16.55;10.45;;;;;;;19.38;55.21;101492.31;4949592;28;123874;-67
2021/08/15 03:07:41;;;;;;;18.90;11.25;;;;;;;19.36;55.10;101478.13;4951340;28;114208;-67
2021/08/15 03:10:09;;;;;;;21.85;12.30;;;;;;;19.34;55.38;101480.06;4951784;28;114465;-67
2021/08/15 03:12:36;;;;;;;17.63;11.40;;;;;;;19.31;55.09;101488.34;4949684;28;124374;-67
2021/08/15 03:15:05;;;;;;;23.67;12.48;;;;;;;19.31;55.23;101480.28;4952249;28;124005;-68
2021/08/15 03:17:33;;;;;;;19.55;12.27;;;;;;;19.29;55.44;101476.84;4954183;28;114860;-68
2021/08/15 03:20:00;;;;;;;21.52;12.60;;;;;;;19.28;55.53;101475.16;4951399;28;114985;-68
2021/08/15 03:22:27;;;;;;;20.40;12.00;;;;;;;19.30;55.68;101476.75;4949403;28;123962;-68
2021/08/15 03:24:54;;;;;;;18.80;12.30;;;;;;;19.31;55.50;101469.53;4947818;28;123923;-68
2021/08/15 03:27:21;;;;;;;20.48;12.07;;;;;;;19.32;55.63;101465.91;4946766;28;114136;-68
2021/08/15 03:29:48;;;;;;;22.83;13.45;;;;;;;19.31;55.55;101466.84;4954637;28;112862;-68
2021/08/15 03:32:16;;;;;;;25.02;12.98;;;;;;;19.32;55.65;101465.91;4950475;28;124251;-68
2021/08/15 03:34:43;;;;;;;19.05;12.57;;;;;;;19.33;55.73;101468.47;4950483;28;123173;-68
2021/08/15 03:37:10;;;;;;;20.65;12.43;;;;;;;19.35;55.92;101466.53;4950544;28;114790;-68
2021/08/15 03:39:37;;;;;;;21.25;11.77;;;;;;;19.37;55.71;101469.13;4952612;28;114166;-67
2021/08/15 03:42:04;;;;;;;22.38;12.40;;;;;;;19.39;55.84;101477.94;4949457;28;124144;-67
2021/08/15 03:44:32;;;;;;;21.33;13.05;;;;;;;19.40;56.04;101466.19;4948772;28;124011;-67
2021/08/15 03:47:01;;;;;;;20.80;12.80;;;;;;;19.42;56.14;101477.69;4950649;28;114032;-67
2021/08/15 03:49:28;;;;;;;20.30;12.95;;;;;;;19.44;56.09;101483.84;4951828;28;113985;-68
2021/08/15 03:51:56;;;;;;;20.75;12.95;;;;;;;19.44;56.06;101475.78;4950090;28;123865;-68
2021/08/15 03:54:24;;;;;;;21.88;12.77;;;;;;;19.46;55.99;101473.84;4947905;28;124799;-68
2021/08/15 03:56:51;;;;;;;24.55;12.30;;;;;;;19.48;55.98;101471.88;4949984;28;114746;-68
2021/08/15 03:59:18;;;;;;;19.83;12.35;;;;;;;19.51;56.14;101477.03;4950693;28;114117;-68
2021/08/15 04:01:46;;;;;;;25.13;12.52;;;;;;;19.51;56.00;101471.66;4953328;28;124615;-68
2021/08/15 04:04:15;;;;;;;24.42;12.55;;;;;;;19.52;56.20;101473.38;4951355;28;123305;-68
2021/08/15 04:06:42;;;;;;;22.88;12.15;;;;;;;19.52;56.13;101473.38;4950590;28;115041;-66
2021/08/15 04:09:10;;;;;;;21.73;12.45;;;;;;;19.54;56.33;101476.81;4953560;28;114869;-66
2021/08/15 04:11:39;;;;;;;19.08;11.90;;;;;;;19.55;56.13;101483.91;4952572;28;123841;-66
2021/08/15 04:14:07;;;;;;;21.75;12.45;;;;;;;19.55;56.11;101483.03;4966142;22;123739;-65
2021/08/15 04:16:34;;;;;;;20.85;12.43;;;;;;;19.55;56.04;101483.03;4965647;28;112770;-66
2021/08/15 04:19:02;;;;;;;20.85;12.82;;;;;;;19.54;56.09;101476.81;4948843;28;114339;-66
2021/08/15 04:21:29;;;;;;;20.08;12.82;;;;;;;19.55;56.21;101477.66;4949051;28;124992;-66
2021/08/15 04:23:56;;;;;;;21.73;12.80;;;;;;;19.55;56.27;101477.66;4947865;28;123971;-66
2021/08/15 04:26:24;;;;;;;20.65;12.30;;;;;;;19.54;56.14;101479.50;4951253;28;113978;-66
2021/08/15 04:28:52;;;;;;;22.08;13.05;;;;;;;19.55;56.24;101477.66;4950775;28;113924;-66
2021/08/15 04:31:19;;;;;;;23.58;12.80;;;;;;;19.54;56.24;101482.19;4948184;28;124147;-66
2021/08/15 04:33:47;;;;;;;20.17;12.65;;;;;;;19.53;56.25;101483.13;4948991;28;124400;-66
2021/08/15 04:36:14;;;;;;;25.30;12.93;;;;;;;19.54;56.28;101486.72;4951395;28;114944;-66
2021/08/15 04:38:41;;;;;;;21.42;12.60;;;;;;;19.53;56.29;101485.81;4951300;28;114376;-66
2021/08/15 04:41:09;;;;;;;18.50;12.05;;;;;;;19.51;56.18;101482.41;4949330;28;124851;-66
2021/08/15 04:43:36;;;;;;;22.10;12.90;;;;;;;19.52;56.53;101475.22;4949255;28;123778;-66
2021/08/15 04:46:03;;;;;;;23.73;13.07;;;;;;;19.53;56.49;101480.44;4952096;28;115509;-66
2021/08/15 04:48:30;;;;;;;21.52;13.52;;;;;;;19.53;56.44;101469.72;4951773;28;113918;-66
2021/08/15 04:50:58;;;;;;;23.17;13.57;;;;;;;19.54;56.71;101466.06;4952476;28;122986;-66
2021/08/15 04:53:27;;;;;;;22.80;13.52;;;;;;;19.55;56.72;101457.03;4948731;28;124761;-66
2021/08/15 04:55:54;;;;;;;23.95;13.82;;;;;;;19.56;56.90;101456.06;4950806;28;115293;-66
2021/08/15 04:58:21;;;;;;;22.35;13.40;;;;;;;19.59;56.68;101469.28;4950880;28;115053;-66
2021/08/15 05:00:49;;;;;;;23.23;13.25;;;;;;;19.61;56.92;101464.66;4950251;28;124026;-66
2021/08/15 05:03:17;;;;;;;20.33;12.40;;;;;;;19.64;56.87;101464.41;4950411;28;124195;-66
2021/08/15 05:05:45;;;;;;;23.90;13.02;;;;;;;19.68;56.76;101456.13;4951516;28;115281;-66
2021/08/15 05:08:12;;;;;;;22.48;13.55;;;;;;;19.71;56.88;101461.28;4953479;28;113785;-66
2021/08/15 05:10:43;;;;;;;21.75;13.25;;;;;;;19.74;57.06;101456.56;4950361;28;124851;-66
2021/08/15 05:13:11;;;;;;;23.70;13.60;;;;;;;19.78;56.96;101462.59;4950802;28;124601;-66
2021/08/15 05:15:39;;;;;;;22.33;13.02;;;;;;;19.81;56.92;101462.34;4950805;28;114240;-66
2021/08/15 05:18:06;;;;;;;18.88;12.75;;;;;;;19.83;57.06;101455.03;4950048;28;113660;-66
2021/08/15 05:20:33;;;;;;;21.67;12.60;;;;;;;19.86;56.74;101454.81;4949741;28;124129;-66
2021/08/15 05:23:00;;;;;;;25.33;13.57;;;;;;;19.89;56.97;101459.97;4951903;28;123761;-66
2021/08/15 05:25:28;;;;;;;20.75;12.73;;;;;;;19.94;56.94;101460.44;4949530;28;114120;-66
2021/08/15 05:27:55;;;;;;;23.30;13.18;;;;;;;19.98;56.95;101459.25;4952766;28;114170;-66
2021/08/15 05:30:22;;;;;;;20.73;12.82;;;;;;;20.01;57.06;101450.97;4947195;28;124315;-66
2021/08/15 05:32:50;;;;;;;22.50;13.48;;;;;;;20.05;57.00;101450.75;4939819;28;123792;-66
2021/08/15 05:35:17;;;;;;;20.73;13.13;;;;;;;20.08;57.08;101458.56;4963787;28;113383;-66
2021/08/15 05:37:44;;;;;;;20.38;12.55;;;;;;;20.13;57.16;101448.31;4945045;28;114626;-66
2021/08/15 05:40:12;;;;;;;25.23;12.77;;;;;;;20.17;57.12;101441.72;4949245;28;123481;-65
2021/08/15 05:42:39;;;;;;;19.70;11.60;;;;;;;20.20;57.10;101442.34;4959610;28;123719;-65
2021/08/15 05:45:07;;;;;;;21.05;12.45;;;;;;;20.26;57.28;101435.66;4943148;28;115829;-65
2021/08/15 05:47:35;;;;;;;17.95;12.00;;;;;;;20.31;57.05;101430.78;4940927;28;116334;-64
2021/08/15 05:50:04;;;;;;;19.27;12.05;;;;;;;20.34;57.06;101433.25;4942066;28;124646;-64
2021/08/15 05:52:31;;;;;;;23.80;12.73;;;;;;;20.39;57.25;101430.19;4952998;28;123116;-64
2021/08/15 05:54:59;;;;;;;22.90;12.48;;;;;;;20.42;57.07;101419.19;4944328;28;114444;-64
2021/08/15 05:57:26;;;;;;;18.77;11.27;;;;;;;20.46;57.00;101419.81;4932898;28;113915;-64
2021/08/15 05:59:53;;;;;;;18.88;11.63;;;;;;;20.49;56.95;101424.94;4935014;28;124560;-64
2021/08/15 06:02:20;;;;;;;17.35;11.65;;;;;;;20.52;57.10;101430.09;4936008;28;123814;-64
2021/08/15 06:05:06;;;;;;;21.13;11.77;;;;;;;20.56;56.99;101431.56;4944894;28;115048;-65
2021/08/15 06:07:52;;;;;;;18.65;11.23;;;;;;;20.59;56.99;101431.34;4943144;28;114866;-65
2021/08/15 06:10:38;;;;;;;20.40;11.43;;;;;;;20.63;56.94;101432.84;4957637;28;124615;-65
2021/08/15 06:13:23;;;;;;;17.65;11.00;;;;;;;20.66;56.91;101420.97;4935991;28;124861;-65
2021/08/15 06:15:51;;;;;;;17.80;11.07;;;;;;;20.70;57.15;101420.63;4935635;28;114377;-65
2021/08/15 06:18:18;;;;;;;20.00;11.50;;;;;;;20.75;57.08;101421.09;4935720;28;114072;-65
2021/08/15 06:21:04;;;;;;;20.75;11.40;;;;;;;20.79;57.06;101419.91;4949416;28;124823;-65
2021/08/15 06:23:52;;;;;;;20.33;10.93;;;;;;;20.85;57.13;101421.25;4946282;28;124705;-65
2021/08/15 06:26:40;;;;;;;19.50;10.85;;;;;;;20.91;57.09;101418.06;4952432;28;115127;-65
2021/08/15 06:29:31;;;;;;;17.55;10.13;;;;;;;20.99;57.20;101417.44;4944236;28;114628;-65
2021/08/15 06:31:58;;;;;;;18.00;10.98;;;;;;;21.08;57.21;101416.69;4947475;28;124318;-65
2021/08/15 06:34:26;;;;;;;17.65;10.35;;;;;;;21.17;57.16;101413.28;4944739;28;123936;-65
2021/08/15 06:36:53;;;;;;;18.70;11.05;;;;;;;21.27;57.28;101415.22;4952535;28;115270;-65
2021/08/15 06:39:20;;;;;;;16.80;9.68;;;;;;;21.36;56.90;101414.44;4952002;28;113852;-65
2021/08/15 06:41:47;;;;;;;16.83;10.57;;;;;;;21.44;56.89;101412.03;4954634;28;123844;-65
2021/08/15 06:44:14;;;;;;;21.17;10.50;;;;;;;21.49;56.60;101415.22;4949131;28;122914;-65
2021/08/15 06:46:42;;;;;;;18.30;10.40;;;;;;;21.54;56.55;101412.97;4942564;28;114268;-65
2021/08/15 06:49:09;;;;;;;19.23;10.75;;;;;;;21.58;56.54;101409.03;4936521;28;114064;-65
2021/08/15 06:51:37;;;;;;;17.77;10.68;;;;;;;21.67;56.54;101409.28;4939067;28;124044;-65
2021/08/15 06:54:04;;;;;;;15.75;10.15;;;;;;;21.72;56.53;101401.66;4935797;28;124324;-66
2021/08/15 06:56:32;;;;;;;18.02;10.20;;;;;;;21.79;56.34;101402.84;4940671;28;115017;-65
2021/08/15 06:59:01;;;;;;;16.50;10.30;;;;;;;21.90;56.57;101397.41;4938065;28;114574;-66
2021/08/15 07:01:28;;;;;;;15.23;9.98;;;;;;;22.00;56.37;101402.03;4933508;28;124515;-65
2021/08/15 07:03:55;;;;;;;18.33;9.82;;;;;;;22.09;56.17;101401.25;4949461;28;123925;-65
2021/08/15 07:06:23;;;;;;;17.20;10.10;;;;;;;22.19;56.27;101395.91;4947326;28;114660;-66
2021/08/15 07:08:50;;;;;;;17.25;10.00;;;;;;;22.31;56.35;101394.91;4936663;28;114335;-65
2021/08/15 07:11:17;;;;;;;17.05;10.07;;;;;;;22.46;56.34;101398.13;4940404;28;124246;-65
2021/08/15 07:13:44;;;;;;;17.02;9.48;;;;;;;22.61;56.21;101391.38;4944143;28;123722;-65
2021/08/15 07:16:11;;;;;;;17.27;9.00;;;;;;;22.79;56.03;101393.44;4945052;28;114311;-65
2021/08/15 07:18:38;;;;;;;14.85;8.50;;;;;;;22.96;55.85;101395.50;4951816;28;114061;-65
2021/08/15 07:21:06;;;;;;;13.77;8.73;;;;;;;23.16;55.41;101401.03;4949573;28;124313;-65
2021/08/15 07:23:34;;;;;;;14.50;7.80;;;;;;;23.32;55.05;101395.97;4942806;28;124195;-65
2021/08/15 07:26:16;;;;;;;15.13;8.32;;;;;;;23.48;54.98;101396.25;4947575;28;114534;-65
2021/08/15 07:28:44;;;;;;;14.30;8.02;;;;;;;23.63;54.40;101387.75;4948938;28;114950;-65
2021/08/15 07:31:11;;;;;;;14.85;8.48;;;;;;;23.74;54.09;101384.91;4963065;28;123137;-65
2021/08/15 07:33:38;;;;;;;15.45;8.43;;;;;;;23.82;53.59;101398.59;4951686;28;123329;-65
2021/08/15 07:36:10;;;;;;;14.23;8.35;;;;;;;23.89;53.52;101388.91;4953394;28;114622;-65
2021/08/15 07:38:38;;;;;;;14.90;8.07;;;;;;;23.98;53.25;101380.94;4950329;28;114076;-65
2021/08/15 07:41:05;;;;;;;11.32;7.60;;;;;;;24.05;53.33;101380.22;4948735;28;124124;-65
2021/08/15 07:43:51;;;;;;;15.95;7.82;;;;;;;24.12;53.01;101388.63;4944300;28;124954;-65
2021/08/15 07:46:36;;;;;;;14.25;7.65;;;;;;;24.19;52.71;101389.75;4946791;28;114885;-66
2021/08/15 07:49:22;;;;;;;13.88;8.07;;;;;;;24.23;52.69;101391.16;4948215;28;114758;-65
2021/08/15 07:52:08;;;;;;;16.85;8.60;;;;;;;24.26;52.39;101390.00;4943872;28;124755;-66
2021/08/15 07:54:54;;;;;;;15.02;8.82;;;;;;;24.30;52.60;101386.03;4937974;28;124744;-66
2021/08/15 07:57:22;;;;;;;17.33;8.45;;;;;;;24.34;52.46;101392.00;4936562;28;114352;-65
2021/08/15 08:00:12;;;;;;;15.73;8.68;;;;;;;24.41;52.32;101382.28;4935290;28;114722;-65
2021/08/15 08:03:01;;;;;;;17.30;9.23;;;;;;;24.49;52.48;101379.72;4935530;28;125005;-65
2021/08/15 08:05:50;;;;;;;16.25;9.02;;;;;;;24.60;52.56;101378.69;4936773;28;127587;-66
2021/08/15 08:08:39;;;;;;;17.05;9.50;;;;;;;24.71;52.49;101378.50;4935786;28;115095;-66
2021/08/15 08:11:06;;;;;;;14.38;8.93;;;;;;;24.80;52.11;101376.78;4953015;28;114337;-66
2021/08/15 08:13:33;;;;;;;15.15;9.10;;;;;;;24.85;52.08;101375.31;4950267;28;123900;-66
2021/08/15 08:16:01;;;;;;;13.43;8.27;;;;;;;24.93;51.84;101382.69;4952465;28;124540;-66
2021/08/15 08:18:29;;;;;;;16.42;8.85;;;;;;;24.99;51.60;101382.09;4951461;28;115487;-65
2021/08/15 08:20:56;;;;;;;13.20;8.00;;;;;;;25.04;51.29;101379.78;4936138;28;115478;-66
2021/08/15 08:23:23;;;;;;;14.93;7.60;;;;;;;25.10;51.27;101380.19;4932675;28;124838;-66
2021/08/15 08:25:51;;;;;;;15.50;8.18;;;;;;;25.17;51.58;101382.16;4949552;28;124889;-66
2021/08/15 08:28:18;;;;;;;14.32;7.57;;;;;;;25.31;51.39;101375.38;4932734;28;114224;-66
2021/08/15 08:30:45;;;;;;;14.07;7.57;;;;;;;25.48;51.41;101364.72;4951147;28;113008;-66
2021/08/15 08:33:12;;;;;;;12.15;6.68;;;;;;;25.66;51.23;101368.28;4938100;28;124788;-66
2021/08/15 08:35:39;;;;;;;10.45;6.18;;;;;;;25.83;51.08;101362.00;4939906;28;124193;-66
2021/08/15 08:38:06;;;;;;;11.32;5.97;;;;;;;26.01;50.71;101366.56;4933568;28;114649;-66
2021/08/15 08:40:34;;;;;;;10.70;6.03;;;;;;;26.19;50.36;101370.13;4942619;28;114662;-66
2021/08/15 08:43:01;;;;;;;12.60;6.50;;;;;;;26.39;50.19;101367.19;4952976;28;124963;-66
2021/08/15 08:45:30;;;;;;;10.98;5.88;;;;;;;26.60;50.34;101373.13;4946191;28;124532;-66
2021/08/15 08:47:58;;;;;;;8.85;4.70;;;;;;;26.77;49.97;101373.22;4952965;28;113157;-66
2021/08/15 08:50:25;;;;;;;9.25;5.70;;;;;;;26.96;49.46;101362.09;4945071;28;113854;-66
2021/08/15 08:52:52;;;;;;;10.60;5.90;;;;;;;27.16;49.30;101361.81;4931482;28;124147;-66
2021/08/15 08:55:19;;;;;;;9.85;5.80;;;;;;;27.29;48.79;101358.66;4935806;28;124617;-66
2021/08/15 08:57:47;;;;;;;10.27;5.35;;;;;;;27.41;48.31;101354.59;4951063;28;114052;-66
2021/08/15 09:00:16;;;;;;;7.45;5.07;;;;;;;27.54;48.06;101359.56;4951861;28;114387;-66
2021/08/15 09:02:44;;;;;;;10.88;5.35;;;;;;;27.66;48.30;101358.19;4950505;28;124370;-66
2021/08/15 09:05:11;;;;;;;10.48;5.50;;;;;;;27.77;47.65;101349.69;4947718;28;124636;-66
2021/08/15 09:07:41;;;;;;;8.38;5.05;;;;;;;27.91;47.36;101345.47;4945596;28;115104;-66
2021/08/15 09:10:11;;;;;;;9.13;4.45;;;;;;;27.99;46.79;101336.47;4944109;28;115428;-66
2021/08/15 09:12:44;;;;;;;8.15;4.38;;;;;;;28.07;46.42;101339.16;4945846;28;124644;-66
2021/08/15 09:15:12;;;;;;;7.60;4.13;;;;;;;28.14;46.35;101329.28;4944600;28;124367;-66
2021/08/15 09:17:40;;;;;;;9.48;4.00;;;;;;;28.22;46.18;101335.72;4972290;28;113099;-66
2021/08/15 09:20:10;;;;;;;6.45;3.70;;;;;;;28.31;45.97;101329.22;4949426;28;114325;-66
2021/08/15 09:22:38;;;;;;;6.25;3.08;;;;;;;28.41;45.75;101339.97;4946154;28;124460;-66
2021/08/15 09:25:21;;;;;;;8.00;3.60;;;;;;;28.50;45.29;101323.41;4967310;28;123032;-66
2021/08/15 09:27:56;;;;;;;5.35;3.28;;;;;;;28.57;45.24;101328.19;4944960;28;114271;-66
2021/08/15 09:30:27;;;;;;;6.28;2.90;;;;;;;28.61;44.75;101326.81;4935934;28;112926;-66
2021/08/15 09:33:07;;;;;;;6.55;3.10;;;;;;;28.64;44.68;101326.47;4945544;28;124291;-66
2021/08/15 09:35:34;;;;;;;5.88;2.92;;;;;;;28.70;44.80;101323.03;4942297;28;123959;-66
2021/08/15 09:38:07;;;;;;;6.10;2.90;;;;;;;28.79;44.77;101321.97;4963810;28;113429;-66
2021/08/15 09:40:49;;;;;;;6.40;2.75;;;;;;;28.90;44.62;101324.28;4941343;28;114405;-66
2021/08/15 09:43:21;;;;;;;4.65;2.65;;;;;;;29.01;43.96;101330.34;4946081;28;124101;-66
2021/08/15 09:45:57;;;;;;;5.28;2.78;;;;;;;29.06;43.47;101317.88;4948682;28;123856;-66
2021/08/15 09:48:33;;;;;;;6.05;2.90;;;;;;;29.09;43.42;101316.69;4951763;28;114933;-66
2021/08/15 09:51:14;;;;;;;6.45;2.88;;;;;;;29.15;43.72;101321.47;4955173;28;114012;-67
2021/08/15 09:53:57;;;;;;;4.13;2.33;;;;;;;29.24;42.91;101312.19;4934631;28;124249;-66
2021/08/15 09:56:37;;;;;;;3.63;2.03;;;;;;;29.28;42.61;101310.81;4944693;28;123760;-66
2021/08/15 09:59:19;;;;;;;3.97;1.98;;;;;;;29.31;42.89;101315.91;4966234;28;115111;-67
2021/08/15 10:01:49;;;;;;;4.63;2.25;;;;;;;29.38;42.36;101309.72;4950224;28;115404;-66
2021/08/15 10:04:17;;;;;;;4.03;2.10;;;;;;;29.45;42.55;101310.69;4949711;28;124456;-66
2021/08/15 10:06:46;;;;;;;4.32;1.77;;;;;;;29.53;41.93;101307.88;4953102;28;124129;-66
2021/08/15 10:09:14;;;;;;;4.85;2.08;;;;;;;29.56;41.70;101307.53;4939917;28;114259;-66
2021/08/15 10:11:42;;;;;;;7.07;2.20;;;;;;;29.58;41.32;101316.38;4966093;28;113985;-69
2021/08/15 10:14:11;;;;;;;4.13;2.00;;;;;;;29.61;41.13;101305.09;4957993;28;124649;-66
2021/08/15 10:16:50;;;;;;;4.13;1.70;;;;;;;29.65;41.25;101300.13;4969050;22;124772;-68
2021/08/15 10:19:25;;;;;;;3.95;1.98;;;;;;;29.70;41.11;101304.00;4962487;28;113207;-68
2021/08/15 10:21:53;;;;;;;3.35;1.83;;;;;;;29.78;40.89;101296.78;4957075;28;113981;-68
2021/08/15 10:24:21;;;;;;;2.33;1.60;;;;;;;29.85;40.70;101292.28;4959757;28;124017;-68
2021/08/15 10:26:52;;;;;;;6.10;1.67;;;;;;;29.92;41.16;101287.78;4961962;28;124566;-68
2021/08/15 10:29:55;;;;;;;5.57;1.80;;;;;;;30.00;41.03;101279.50;4959529;28;114314;-68
2021/08/15 10:32:23;;;;;;;3.38;1.80;;;;;;;30.05;40.27;101285.25;4936290;28;114688;-68
2021/08/15 10:34:50;;;;;;;4.20;1.90;;;;;;;30.05;40.02;101285.25;4956933;28;123514;-68
2021/08/15 10:37:33;;;;;;;3.75;1.75;;;;;;;30.04;40.03;101283.53;4961614;28;123954;-69
2021/08/15 10:40:03;;;;;;;3.35;1.95;;;;;;;30.06;39.64;101286.97;4962622;28;114873;-69
2021/08/15 10:42:39;;;;;;;7.85;2.10;;;;;;;30.05;39.71;101274.34;4959664;28;113846;-69
2021/08/15 10:45:24;;;;;;;4.93;2.08;;;;;;;30.07;39.49;101277.72;4960707;28;123844;-66
2021/08/15 10:48:12;;;;;;;4.78;1.85;;;;;;;30.06;39.41;101265.13;4965397;28;124662;-66
2021/08/15 10:50:44;;;;;;;4.97;2.10;;;;;;;30.07;38.95;101266.78;4965737;28;115441;-66
2021/08/15 10:53:24;;;;;;;3.92;1.80;;;;;;;30.07;38.83;101266.78;4959643;28;114560;-66
2021/08/15 10:55:56;;;;;;;5.10;2.20;;;;;;;30.08;38.91;101268.50;4964539;28;124610;-66
2021/08/15 10:58:50;;;;;;;3.85;1.70;;;;;;;30.09;39.16;101259.25;4967657;28;122820;-66
2021/08/15 11:01:18;;;;;;;3.70;2.00;;;;;;;30.17;38.57;101260.22;4964832;28;114005;-66
2021/08/15 11:03:49;;;;;;;4.43;1.85;;;;;;;30.21;38.70;101247.84;4963901;28;114748;-66
2021/08/15 11:06:36;;;;;;;3.85;1.98;;;;;;;30.28;38.78;101246.06;4968842;28;124247;-66
2021/08/15 11:09:09;;;;;;;3.45;1.60;;;;;;;30.37;38.21;101250.44;4966938;28;123665;-66
2021/08/15 11:12:04;;;;;;;3.87;2.00;;;;;;;30.43;37.94;101260.59;4958072;28;114941;-67
2021/08/15 11:14:32;;;;;;;3.90;2.03;;;;;;;30.42;37.61;101269.84;4969928;28;114042;-66
2021/08/15 11:17:08;;;;;;;3.42;1.63;;;;;;;30.37;37.08;101255.91;4970149;28;124175;-66
2021/08/15 11:19:36;;;;;;;4.57;2.03;;;;;;;30.35;37.22;101257.13;4960960;28;123453;-66